Time;durP1;ratioP1;P1;durP2;ratioP2;P2;SDS_P1;SDS_P2;PMS_P1;PMS_P2;Temp;Humidity;BMP_temperature;BMP_pressure;BME280_temperature;BME280_humidity;BME280_pressure;Samples;Min_cycle;Max_cycle;Signal;HPM_P1;HPM_P2
2023/07/28 00:02:17;;;;;;;;;;;;;;;21.29;56.68;96302.13;6148696;28;20309;-71
2023/07/28 00:05:18;;;;;;;;;;;;;;;21.26;57.05;96297.94;6124748;29;19927;-71
2023/07/28 00:08:19;;;;;;;;;;;;;;;21.15;57.26;96294.88;6125561;29;20449;-71
2023/07/28 00:11:22;;;;;;;;;;;;;;;21.11;57.30;96298.91;6108982;29;19923;-71
2023/07/28 00:14:24;;;;;;;;;;;;;;;21.04;57.37;96304.97;6124960;29;19933;-72
2023/07/28 00:17:28;;;;;;;;;;;;;;;20.98;57.37;96304.88;6124354;29;19923;-70
2023/07/28 00:20:33;;;;;;;;;;;;;;;20.96;57.79;96302.34;6125440;29;19926;-70
2023/07/28 00:23:37;;;;;;;;;;;;;;;20.99;57.59;96302.00;6108367;29;19927;-70
2023/07/28 00:26:40;;;;;;;;;;;;;;;21.07;57.03;96301.94;6125215;29;19927;-72
2023/07/28 00:29:42;;;;;;;;;;;;;;;21.17;57.31;96303.53;6125136;29;19951;-71
2023/07/28 00:32:46;;;;;;;;;;;;;;;21.15;57.24;96302.91;6125439;29;19930;-71
2023/07/28 00:35:50;;;;;;;;;;;;;;;21.12;57.41;96305.91;6125018;29;20013;-70
2023/07/28 00:38:51;;;;;;;;;;;;;;;21.10;57.38;96310.63;6124833;29;19933;-71
2023/07/28 00:41:54;;;;;;;;;;;;;;;21.10;57.38;96303.44;6124514;29;19930;-72
2023/07/28 00:44:57;;;;;;;;;;;;;;;21.15;56.69;96300.22;6123927;29;20023;-71
2023/07/28 00:48:01;;;;;;;;;;;;;;;21.19;56.78;96307.69;6124704;29;20397;-72
2023/07/28 00:51:05;;;;;;;;;;;;;;;21.26;56.66;96305.97;6124841;29;19931;-71
2023/07/28 00:54:09;;;;;;;;;;;;;;;21.36;56.24;96307.56;6124745;29;19986;-71
2023/07/28 00:57:12;;;;;;;;;;;;;;;21.46;56.30;96302.84;6124746;29;20030;-71
2023/07/28 01:00:13;;;;;;;;;;;;;;;21.50;56.36;96304.13;6108091;29;20401;-72
2023/07/28 01:03:18;;;;;;;;;;;;;;;21.50;56.28;96304.94;6124596;29;19926;-71
2023/07/28 01:06:31;;;;;;;;;;;;;;;21.49;56.53;96303.28;6124221;29;19981;-71
2023/07/28 01:09:52;;;;;;;;;;;;;;;21.56;56.24;96307.91;6124175;29;20435;-71
2023/07/28 01:12:57;;;;;;;;;;;;;;;21.54;56.96;96308.09;6124638;29;20401;-71
2023/07/28 01:16:00;;;;;;;;;;;;;;;21.57;56.72;96309.56;6107304;29;19934;-71
2023/07/28 01:19:04;;;;;;;;;;;;;;;21.59;56.70;96312.91;6124367;29;19926;-71
2023/07/28 01:22:07;;;;;;;;;;;;;;;21.66;56.55;96319.22;6124483;29;19926;-72
2023/07/28 01:25:28;;;;;;;;;;;;;;;21.71;56.84;96311.44;6124331;29;19941;-71
2023/07/28 01:28:30;;;;;;;;;;;;;;;21.80;56.17;96321.06;6107428;29;20420;-71
2023/07/28 01:31:31;;;;;;;;;;;;;;;21.86;56.21;96309.63;6123703;29;19926;-70
2023/07/28 01:34:35;;;;;;;;;;;;;;;22.06;56.32;96317.13;6124267;29;19931;-71
2023/07/28 01:37:39;;;;;;;;;;;;;;;22.01;56.06;96312.31;6124334;29;20286;-72
2023/07/28 01:40:42;;;;;;;;;;;;;;;22.04;56.49;96316.47;6124182;29;19927;-71
2023/07/28 01:43:48;;;;;;;;;;;;;;;22.09;55.96;96309.53;6124020;29;20032;-71
2023/07/28 01:46:52;;;;;;;;;;;;;;;22.13;55.69;96315.34;6106761;29;19934;-71
2023/07/28 01:49:55;;;;;;;;;;;;;;;22.18;55.86;96321.00;6124593;29;19926;-71
2023/07/28 01:52:58;;;;;;;;;;;;;;;22.24;55.51;96333.66;6124071;29;19927;-72
2023/07/28 01:56:02;;;;;;;;;;;;;;;22.31;55.80;96326.56;6128557;29;20381;-71
2023/07/28 01:59:06;;;;;;;;;;;;;;;22.44;55.83;96328.56;6110823;29;19933;-71
2023/07/28 02:02:13;;;;;;;;;;;;;;;22.66;56.33;96321.41;6111251;29;19926;-70
2023/07/28 02:05:18;;;;;;;;;;;;;;;22.61;56.21;96313.91;6128280;29;19938;-71
2023/07/28 02:08:21;;;;;;;;;;;;;;;22.62;56.11;96326.34;6127475;29;19938;-71
2023/07/28 02:11:25;;;;;;;;;;;;;;;22.77;55.88;96331.66;6128353;29;19926;-71
2023/07/28 02:14:31;;;;;;;;;;;;;;;22.93;55.75;96333.28;6110989;29;19940;-71
2023/07/28 02:17:32;;;;;;;;;;;;;;;22.98;55.71;96330.03;6127444;29;20053;-71
2023/07/28 02:20:35;;;;;;;;;;;;;;;23.16;55.38;96333.13;6127577;29;19934;-71
2023/07/28 02:23:40;;;;;;;;;;;;;;;23.33;55.28;96330.19;6127827;29;19933;-70
2023/07/28 02:26:43;;;;;;;;;;;;;;;23.34;55.16;96329.16;6128028;29;19927;-71
2023/07/28 02:29:49;;;;;;;;;;;;;;;23.31;55.31;96331.19;6110917;29;19927;-71
2023/07/28 02:32:52;;;;;;;;;;;;;;;23.37;55.11;96331.47;6127386;29;20289;-71
2023/07/28 02:35:56;;;;;;;;;;;;;;;23.52;54.93;96332.19;6110307;29;19935;-71
2023/07/28 02:38:57;;;;;;;;;;;;;;;23.68;54.88;96321.19;6109827;29;20401;-71
2023/07/28 02:42:01;;;;;;;;;;;;;;;23.63;55.01;96323.63;6110430;29;19927;-72
2023/07/28 02:45:05;;;;;;;;;;;;;;;23.66;55.19;96319.72;6110985;29;19934;-71
2023/07/28 02:48:08;;;;;;;;;;;;;;;23.71;55.10;96326.19;6127105;29;19940;-72
2023/07/28 02:51:11;;;;;;;;;;;;;;;23.81;55.28;96333.06;6110821;29;20207;-71
2023/07/28 02:54:15;;;;;;;;;;;;;;;23.89;54.65;96330.25;6110017;29;19927;-71
2023/07/28 02:57:18;;;;;;;;;;;;;;;23.95;54.45;96337.53;6125589;29;19927;-72
2023/07/28 03:00:24;;;;;;;;;;;;;;;24.10;54.61;96332.03;6126989;29;20143;-71
2023/07/28 03:03:25;;;;;;;;;;;;;;;24.18;54.48;96338.09;6126241;29;19950;-71
2023/07/28 03:06:27;;;;;;;;;;;;;;;24.27;54.09;96329.88;6134929;29;19959;-71
2023/07/28 03:09:28;;;;;;;;;;;;;;;24.45;53.55;96338.25;6126564;29;20009;-72
2023/07/28 03:12:30;;;;;;;;;;;;;;;24.78;53.87;96345.66;6126223;29;19934;-71
2023/07/28 03:15:31;;;;;;;;;;;;;;;24.88;53.60;96354.16;6126826;29;19933;-71
2023/07/28 03:18:34;;;;;;;;;;;;;;;24.95;53.34;96354.19;6126089;29;19927;-72
2023/07/28 03:21:40;;;;;;;;;;;;;;;25.01;53.23;96354.19;6126654;29;20301;-72
2023/07/28 03:24:46;;;;;;;;;;;;;;;25.21;52.99;96358.84;6126521;29;20321;-71
2023/07/28 03:27:52;;;;;;;;;;;;;;;25.62;52.27;96355.16;6126259;29;19930;-72
2023/07/28 03:30:53;;;;;;;;;;;;;;;26.21;51.03;96354.31;6125106;29;19950;-72
2023/07/28 03:33:54;;;;;;;;;;;;;;;26.64;50.07;96353.84;6125051;29;19934;-71
2023/07/28 03:36:57;;;;;;;;;;;;;;;27.17;48.92;96353.59;6126044;29;20393;-71
2023/07/28 03:40:01;;;;;;;;;;;;;;;27.45;48.67;96347.78;6126004;29;19927;-72
2023/07/28 03:43:02;;;;;;;;;;;;;;;27.63;47.93;96352.47;6125103;29;19934;-71
2023/07/28 03:46:07;;;;;;;;;;;;;;;27.73;47.98;96355.47;6125870;29;19927;-71
2023/07/28 03:49:16;;;;;;;;;;;;;;;27.80;47.88;96351.94;6125566;29;19927;-73
2023/07/28 03:52:20;;;;;;;;;;;;;;;27.82;47.91;96361.47;6125609;29;19930;-71
2023/07/28 03:55:23;;;;;;;;;;;;;;;28.07;47.22;96364.16;6125623;29;20353;-71
2023/07/28 03:58:27;;;;;;;;;;;;;;;28.51;46.46;96378.56;6125709;29;19942;-71
2023/07/28 04:01:31;;;;;;;;;;;;;;;28.85;45.41;96366.28;6125004;29;19926;-72
2023/07/28 04:04:39;;;;;;;;;;;;;;;29.01;44.47;96381.06;6162847;28;20020;-72
2023/07/28 04:07:42;;;;;;;;;;;;;;;28.93;44.20;96394.09;6173195;28;19981;-72
2023/07/28 04:10:48;;;;;;;;;;;;;;;28.59;44.03;96402.63;6173358;28;20363;-73
2023/07/28 04:13:51;;;;;;;;;;;;;;;28.20;44.69;96404.63;6173077;28;19926;-72
2023/07/28 04:16:52;;;;;;;;;;;;;;;27.49;47.59;96415.75;6172179;28;20392;-70
2023/07/28 04:19:56;;;;;;;;;;;;;;;25.92;50.04;96407.63;6172956;28;20380;-72
2023/07/28 04:22:57;;;;;;;;;;;;;;;24.87;53.04;96403.63;6172231;28;19933;-71
2023/07/28 04:26:01;;;;;;;;;;;;;;;24.57;53.62;96412.00;6172458;28;20512;-72
2023/07/28 04:29:02;;;;;;;;;;;;;;;24.73;54.21;96412.69;6172407;28;20085;-71
2023/07/28 04:32:03;;;;;;;;;;;;;;;24.89;54.06;96415.03;6172180;28;19926;-72
2023/07/28 04:35:05;;;;;;;;;;;;;;;25.18;53.97;96419.31;6172848;28;19948;-72
2023/07/28 04:38:08;;;;;;;;;;;;;;;25.23;53.16;96407.94;6172459;28;19933;-72
2023/07/28 04:41:12;;;;;;;;;;;;;;;25.24;54.40;96412.28;6172609;28;19926;-72
2023/07/28 04:44:16;;;;;;;;;;;;;;;25.12;54.77;96416.56;6172506;28;19948;-72
2023/07/28 04:47:22;;;;;;;;;;;;;;;24.98;55.44;96419.19;6172668;28;19926;-72
2023/07/28 04:50:28;;;;;;;;;;;;;;;24.78;56.34;96418.28;6172496;28;20250;-72
2023/07/28 04:53:31;;;;;;;;;;;;;;;24.52;58.27;96414.44;6172380;28;19926;-71
2023/07/28 04:56:35;;;;;;;;;;;;;;;24.51;57.44;96401.19;6172344;28;19926;-72
2023/07/28 04:59:38;;;;;;;;;;;;;;;24.83;57.09;96399.69;6172148;28;19926;-71
2023/07/28 05:02:42;;;;;;;;;;;;;;;25.29;56.47;96404.44;6164781;28;20313;-72
2023/07/28 05:05:46;;;;;;;;;;;;;;;25.60;55.29;96406.56;6124707;29;20431;-72
2023/07/28 05:08:49;;;;;;;;;;;;;;;25.92;54.99;96410.34;6124554;29;20425;-72
2023/07/28 05:11:55;;;;;;;;;;;;;;;26.48;54.10;96402.81;6124707;29;20195;-72
2023/07/28 05:14:56;;;;;;;;;;;;;;;27.50;52.18;96412.00;6124452;29;20436;-72
2023/07/28 05:18:00;;;;;;;;;;;;;;;28.24;50.48;96420.41;6124187;29;19933;-72
2023/07/28 05:21:03;;;;;;;;;;;;;;;28.42;49.72;96415.06;6124436;29;19948;-73
2023/07/28 05:24:05;;;;;;;;;;;;;;;28.58;49.43;96402.84;6124016;29;19927;-73
2023/07/28 05:27:10;;;;;;;;;;;;;;;30.07;46.68;96415.91;6124416;29;19926;-72
2023/07/28 05:30:16;;;;;;;;;;;;;;;30.42;44.75;96403.19;6127991;29;19946;-72
2023/07/28 05:33:22;;;;;;;;;;;;;;;30.03;45.50;96409.28;6129079;29;19927;-73
2023/07/28 05:36:24;;;;;;;;;;;;;;;29.20;46.88;96400.88;6128888;29;20321;-72
2023/07/28 05:39:25;;;;;;;;;;;;;;;27.54;50.31;96387.03;6127954;29;19974;-73
2023/07/28 05:42:31;;;;;;;;;;;;;;;26.07;53.67;96401.19;6128778;29;19927;-73
2023/07/28 05:45:36;;;;;;;;;;;;;;;25.26;55.62;96400.28;6128436;29;19927;-72
2023/07/28 05:48:40;;;;;;;;;;;;;;;24.91;56.57;96414.81;6127607;29;19927;-73
2023/07/28 05:51:41;;;;;;;;;;;;;;;24.74;57.17;96407.09;6128447;29;19936;-73
2023/07/28 05:54:44;;;;;;;;;;;;;;;24.58;57.55;96393.97;6128287;29;19927;-73
2023/07/28 05:57:48;;;;;;;;;;;;;;;24.83;57.40;96388.94;6128120;29;19931;-72
2023/07/28 06:00:49;;;;;;;;;;;;;;;25.29;56.51;96385.56;6127828;29;20464;-73
2023/07/28 06:03:51;;;;;;;;;;;;;;;26.05;54.80;96387.94;6127661;29;19927;-73
2023/07/28 06:06:52;;;;;;;;;;;;;;;26.77;53.42;96380.75;6127215;29;19946;-72
2023/07/28 06:09:56;;;;;;;;;;;;;;;27.34;51.89;96383.63;6111027;29;19926;-72
2023/07/28 06:12:59;;;;;;;;;;;;;;;28.62;49.89;96396.75;6127683;29;20401;-72
2023/07/28 06:16:03;;;;;;;;;;;;;;;29.89;47.40;96387.78;6128137;29;19927;-73
2023/07/28 06:19:06;;;;;;;;;;;;;;;31.46;44.63;96407.03;6127508;29;19931;-71
2023/07/28 06:22:11;;;;;;;;;;;;;;;32.64;43.09;96413.38;6127177;29;20042;-72
2023/07/28 06:25:14;;;;;;;;;;;;;;;33.19;40.65;96406.22;6127552;29;20405;-72
2023/07/28 06:28:18;;;;;;;;;;;;;;;33.25;41.58;96409.81;6127667;29;19927;-72
2023/07/28 06:31:19;;;;;;;;;;;;;;;33.59;40.44;96407.78;6126826;29;19931;-73
2023/07/28 06:34:26;;;;;;;;;;;;;;;33.38;40.82;96417.63;6127696;29;20107;-71
2023/07/28 06:37:29;;;;;;;;;;;;;;;32.81;41.02;96420.69;6127648;29;19927;-73
2023/07/28 06:40:32;;;;;;;;;;;;;;;32.47;41.13;96415.31;6126202;29;19927;-72
2023/07/28 06:43:36;;;;;;;;;;;;;;;31.93;41.39;96407.63;6126504;29;19934;-73
2023/07/28 06:46:40;;;;;;;;;;;;;;;32.01;40.78;96403.66;6126292;29;20202;-73
2023/07/28 06:49:43;;;;;;;;;;;;;;;32.34;39.79;96402.00;6127355;29;19927;-72
2023/07/28 06:52:49;;;;;;;;;;;;;;;32.97;39.10;96389.00;6127370;29;20175;-74
2023/07/28 06:55:55;;;;;;;;;;;;;;;35.01;36.77;96396.28;6110621;29;20001;-73
2023/07/28 06:58:59;;;;;;;;;;;;;;;38.78;31.03;96401.03;6127065;29;19930;-73
2023/07/28 07:02:03;;;;;;;;;;;;;;;41.86;27.79;96405.88;6110352;29;19927;-72
2023/07/28 07:05:04;;;;;;;;;;;;;;;43.76;23.87;96398.06;6169476;28;20430;-72
2023/07/28 07:08:05;;;;;;;;;;;;;;;45.32;23.64;96396.94;6173847;28;19952;-72
2023/07/28 07:11:11;;;;;;;;;;;;;;;47.72;21.79;96394.31;6174655;28;19926;-72
2023/07/28 07:14:20;;;;;;;;;;;;;;;49.53;19.58;96400.41;6174483;28;19933;-72
2023/07/28 07:17:24;;;;;;;;;;;;;;;49.34;18.71;96389.19;6173547;28;19961;-72
2023/07/28 07:20:26;;;;;;;;;;;;;;;47.58;19.87;96378.78;6156345;28;19953;-72
2023/07/28 07:23:29;;;;;;;;;;;;;;;45.24;20.70;96368.03;6156198;28;19933;-73
2023/07/28 07:26:33;;;;;;;;;;;;;;;43.37;22.99;96358.22;6173675;28;19926;-73
2023/07/28 07:29:38;;;;;;;;;;;;;;;42.80;23.56;96365.38;6173962;28;20041;-72
2023/07/28 07:32:42;;;;;;;;;;;;;;;44.07;21.69;96364.66;6173343;28;19926;-73
2023/07/28 07:35:44;;;;;;;;;;;;;;;44.68;21.88;96361.75;6173357;28;19988;-73
2023/07/28 07:38:48;;;;;;;;;;;;;;;45.76;21.02;96367.72;6173020;28;19937;-72
2023/07/28 07:41:55;;;;;;;;;;;;;;;47.19;18.63;96372.75;6173830;28;19926;-72
2023/07/28 07:44:59;;;;;;;;;;;;;;;48.06;18.30;96360.28;6173616;28;19930;-72
2023/07/28 07:48:03;;;;;;;;;;;;;;;48.81;17.41;96355.13;6173664;28;19930;-72
2023/07/28 07:51:05;;;;;;;;;;;;;;;48.72;16.47;96366.47;6172897;28;19922;-73
2023/07/28 07:54:08;;;;;;;;;;;;;;;48.33;16.73;96377.41;6173591;28;19926;-73
2023/07/28 07:57:10;;;;;;;;;;;;;;;48.11;17.41;96368.41;6156544;28;20424;-72
2023/07/28 08:00:12;;;;;;;;;;;;;;;48.65;16.88;96364.31;6172761;28;19922;-73
2023/07/28 08:03:13;;;;;;;;;;;;;;;48.76;16.94;96359.03;6147325;28;20021;-71
2023/07/28 08:06:17;;;;;;;;;;;;;;;48.90;17.28;96351.03;6131277;28;20017;-72
2023/07/28 08:09:19;;;;;;;;;;;;;;;49.50;16.32;96333.25;6131742;28;19930;-73
2023/07/28 08:12:23;;;;;;;;;;;;;;;49.55;15.74;96339.38;6149087;28;20069;-72
2023/07/28 08:15:32;;;;;;;;;;;;;;;49.38;16.17;96332.22;6149141;28;19933;-72
2023/07/28 08:18:36;;;;;;;;;;;;;;;49.77;15.74;96335.06;6149135;28;19927;-73
2023/07/28 08:21:41;;;;;;;;;;;;;;;49.70;15.59;96334.91;6131895;28;20000;-72
2023/07/28 08:24:45;;;;;;;;;;;;;;;49.40;15.52;96338.25;6149038;28;19926;-72
2023/07/28 08:27:49;;;;;;;;;;;;;;;47.81;16.61;96319.72;6148836;28;19926;-73
2023/07/28 08:30:55;;;;;;;;;;;;;;;46.32;17.56;96312.59;6131705;29;19934;-74
2023/07/28 08:33:59;;;;;;;;;;;;;;;46.10;18.06;96315.75;6148425;28;19926;-73
2023/07/28 08:37:05;;;;;;;;;;;;;;;46.80;17.16;96301.88;6131840;28;19930;-73
2023/07/28 08:40:12;;;;;;;;;;;;;;;45.28;18.35;96291.25;6148655;28;19957;-73
2023/07/28 08:43:19;;;;;;;;;;;;;;;45.47;18.17;96302.69;6148564;28;19926;-73
2023/07/28 08:46:23;;;;;;;;;;;;;;;45.98;17.98;96307.34;6148934;28;19926;-72
2023/07/28 08:49:26;;;;;;;;;;;;;;;46.77;17.78;96295.03;6148420;28;19954;-72
2023/07/28 08:52:34;;;;;;;;;;;;;;;47.49;16.83;96305.66;6148442;28;19950;-73
2023/07/28 08:55:40;;;;;;;;;;;;;;;48.04;16.59;96309.63;6148267;28;19926;-73
2023/07/28 08:58:42;;;;;;;;;;;;;;;47.83;16.39;96306.25;6147938;28;20337;-73
2023/07/28 09:01:46;;;;;;;;;;;;;;;46.35;17.40;96300.78;6148560;28;20582;-72
2023/07/28 09:04:51;;;;;;;;;;;;;;;43.06;20.41;96295.47;6127471;29;19934;-71
2023/07/28 09:07:52;;;;;;;;;;;;;;;40.59;22.89;96268.63;6107102;29;19926;-72
2023/07/28 09:10:58;;;;;;;;;;;;;;;39.95;23.60;96272.03;6124440;29;19926;-73
2023/07/28 09:14:11;;;;;;;;;;;;;;;40.32;23.57;96278.53;6124419;29;20405;-74
2023/07/28 09:17:14;;;;;;;;;;;;;;;40.24;23.63;96278.44;6124482;29;19926;-71
2023/07/28 09:20:17;;;;;;;;;;;;;;;40.14;23.53;96271.97;6125150;29;20021;-72
2023/07/28 09:23:27;;;;;;;;;;;;;;;40.59;22.90;96279.66;6123850;29;19931;-73
2023/07/28 09:26:41;;;;;;;;;;;;;;;41.09;22.36;96265.97;6124299;29;20416;-72
2023/07/28 09:29:47;;;;;;;;;;;;;;;40.68;22.65;96264.06;6124390;29;19934;-72
2023/07/28 09:32:52;;;;;;;;;;;;;;;39.56;23.89;96266.06;6124255;29;19926;-72
2023/07/28 09:35:57;;;;;;;;;;;;;;;38.68;24.65;96241.69;6124351;29;20346;-72
2023/07/28 09:38:58;;;;;;;;;;;;;;;38.02;25.47;96245.16;6107120;29;20308;-72
2023/07/28 09:42:02;;;;;;;;;;;;;;;38.22;26.02;96253.22;6124036;29;19926;-72
2023/07/28 09:45:07;;;;;;;;;;;;;;;38.47;25.17;96254.03;6124048;29;20274;-72
2023/07/28 09:48:10;;;;;;;;;;;;;;;37.45;26.01;96244.78;6124176;29;20305;-72
2023/07/28 09:51:19;;;;;;;;;;;;;;;37.00;26.90;96244.81;6123551;29;19922;-72
2023/07/28 09:54:29;;;;;;;;;;;;;;;36.75;27.18;96247.72;6123476;29;20009;-72
2023/07/28 09:57:36;;;;;;;;;;;;;;;36.73;26.95;96239.75;6106471;29;19958;-72
2023/07/28 10:00:40;;;;;;;;;;;;;;;38.08;25.80;96241.28;6107212;29;20085;-72
2023/07/28 10:03:43;;;;;;;;;;;;;;;39.50;22.64;96248.81;6123492;29;19926;-73
2023/07/28 10:06:47;;;;;;;;;;;;;;;40.48;21.01;96248.72;6123507;29;20304;-72
2023/07/28 10:09:51;;;;;;;;;;;;;;;41.24;20.43;96239.94;6123669;29;20826;-71
2023/07/28 10:12:57;;;;;;;;;;;;;;;42.24;19.43;96234.16;6123285;29;19929;-72
2023/07/28 10:16:02;;;;;;;;;;;;;;;43.52;18.40;96238.66;6125241;29;19931;-73
2023/07/28 10:19:05;;;;;;;;;;;;;;;44.11;17.12;96238.91;6127716;29;20009;-71
2023/07/28 10:22:10;;;;;;;;;;;;;;;44.15;16.90;96234.31;6127741;29;20017;-72
2023/07/28 10:25:22;;;;;;;;;;;;;;;44.05;16.82;96237.47;6127856;29;19927;-72
2023/07/28 10:28:34;;;;;;;;;;;;;;;43.38;16.94;96233.28;6110563;29;20009;-71
2023/07/28 10:31:37;;;;;;;;;;;;;;;42.52;17.24;96222.88;6127554;29;20292;-71
2023/07/28 10:34:41;;;;;;;;;;;;;;;42.15;17.98;96220.28;6127587;29;19927;-71
2023/07/28 10:37:47;;;;;;;;;;;;;;;41.59;18.56;96234.72;6127583;29;20316;-72
2023/07/28 10:40:53;;;;;;;;;;;;;;;40.85;18.59;96219.28;6127638;29;20009;-72
2023/07/28 10:43:54;;;;;;;;;;;;;;;40.91;18.43;96212.53;6127605;29;20102;-72
2023/07/28 10:46:55;;;;;;;;;;;;;;;41.04;18.32;96219.94;6127306;29;19927;-73
2023/07/28 10:49:56;;;;;;;;;;;;;;;41.30;17.98;96219.38;6126998;29;19982;-72
2023/07/28 10:53:00;;;;;;;;;;;;;;;41.45;17.85;96210.72;6127364;29;19922;-72
2023/07/28 10:56:04;;;;;;;;;;;;;;;41.48;17.49;96201.03;6126676;29;20179;-73
2023/07/28 10:59:06;;;;;;;;;;;;;;;41.24;18.18;96195.78;6126732;29;19926;-71
2023/07/28 11:02:13;;;;;;;;;;;;;;;41.37;18.17;96192.16;6126443;29;19951;-71
2023/07/28 11:05:33;;;;;;;;;;;;;;;41.30;18.28;96202.81;6167176;28;19933;-72
2023/07/28 11:08:35;;;;;;;;;;;;;;;41.24;17.87;96193.03;6173969;28;19930;-73
2023/07/28 11:11:39;;;;;;;;;;;;;;;40.52;17.63;96189.09;6174693;28;20332;-71
2023/07/28 11:14:43;;;;;;;;;;;;;;;39.49;18.71;96197.59;6173622;28;19933;-72
2023/07/28 11:17:47;;;;;;;;;;;;;;;38.83;20.08;96186.47;6174006;28;19930;-73
2023/07/28 11:20:50;;;;;;;;;;;;;;;38.75;20.19;96186.31;6173184;28;19932;-71
2023/07/28 11:23:54;;;;;;;;;;;;;;;38.48;20.57;96185.03;6174122;28;19926;-73
2023/07/28 11:27:02;;;;;;;;;;;;;;;38.47;20.67;96188.88;6173561;28;19926;-72
2023/07/28 11:30:11;;;;;;;;;;;;;;;38.89;19.44;96183.69;6173622;28;19926;-72
2023/07/28 11:33:15;;;;;;;;;;;;;;;38.46;19.99;96186.44;6174188;28;19926;-73
2023/07/28 11:36:36;;;;;;;;;;;;;;;37.98;19.67;96187.25;6172316;28;20404;-72
2023/07/28 11:39:40;;;;;;;;;;;;;;;37.67;20.19;96181.22;6171785;28;19926;-72
2023/07/28 11:42:48;;;;;;;;;;;;;;;37.32;20.79;96185.91;6173553;28;20392;-72
2023/07/28 11:45:51;;;;;;;;;;;;;;;37.29;20.72;96175.53;6173549;28;20289;-72
2023/07/28 11:48:56;;;;;;;;;;;;;;;36.99;21.81;96177.34;6156374;28;19932;-73
2023/07/28 11:52:00;;;;;;;;;;;;;;;36.62;22.08;96183.34;6172294;28;20030;-72
2023/07/28 11:55:06;;;;;;;;;;;;;;;36.61;22.18;96166.09;6173333;28;19930;-71
2023/07/28 11:58:11;;;;;;;;;;;;;;;36.06;22.15;96176.16;6173216;28;19926;-72
2023/07/28 12:01:13;;;;;;;;;;;;;;;35.60;22.62;96173.53;6171991;28;19977;-72
2023/07/28 12:04:50;;;;;;;;;;;;;;;35.64;22.84;96169.16;6172286;28;19930;-72
2023/07/28 12:07:51;;;;;;;;;;;;;;;35.52;22.85;96172.13;6055152;28;20454;-72
2023/07/28 12:10:56;;;;;;;;;;;;;;;35.54;22.91;96158.19;6172807;28;19926;-72
2023/07/28 12:14:00;;;;;;;;;;;;;;;35.85;22.41;96163.63;6171950;28;20304;-73
2023/07/28 12:17:03;;;;;;;;;;;;;;;35.65;22.61;96167.22;6173028;28;19930;-74
2023/07/28 12:20:15;;;;;;;;;;;;;;;35.37;22.71;96168.59;6172925;28;19930;-72
2023/07/28 12:23:22;;;;;;;;;;;;;;;35.19;23.40;96173.53;6173033;28;20384;-72
2023/07/28 12:26:23;;;;;;;;;;;;;;;35.12;23.75;96183.09;6171676;28;20339;-72
2023/07/28 12:29:27;;;;;;;;;;;;;;;35.05;23.93;96177.88;6172682;28;19926;-72
2023/07/28 12:32:28;;;;;;;;;;;;;;;34.90;23.88;96169.63;6172311;28;19973;-73
2023/07/28 12:35:31;;;;;;;;;;;;;;;35.01;23.79;96172.09;6172715;28;19933;-73
2023/07/28 12:38:33;;;;;;;;;;;;;;;35.10;23.71;96180.63;6171938;28;19926;-72
2023/07/28 12:41:36;;;;;;;;;;;;;;;34.79;23.92;96169.66;6172633;28;19926;-72
2023/07/28 12:44:38;;;;;;;;;;;;;;;34.75;24.11;96174.00;6172531;28;20418;-73
2023/07/28 12:47:43;;;;;;;;;;;;;;;34.79;24.06;96175.09;6172619;28;19926;-73
2023/07/28 12:50:49;;;;;;;;;;;;;;;35.05;23.71;96177.88;6171276;28;19934;-72
2023/07/28 12:53:50;;;;;;;;;;;;;;;34.83;24.05;96170.72;6171262;28;19926;-72
2023/07/28 12:56:53;;;;;;;;;;;;;;;34.68;24.19;96157.06;6171857;28;19926;-73
2023/07/28 12:59:57;;;;;;;;;;;;;;;34.51;24.48;96157.25;6172270;28;20395;-73
2023/07/28 13:03:03;;;;;;;;;;;;;;;34.28;24.56;96158.53;6155410;28;19926;-72
2023/07/28 13:06:07;;;;;;;;;;;;;;;34.03;24.82;96150.19;6172252;28;19926;-73
2023/07/28 13:09:08;;;;;;;;;;;;;;;33.69;25.41;96148.69;6171917;28;20342;-73
2023/07/28 13:12:09;;;;;;;;;;;;;;;33.73;25.44;96146.25;6171468;28;19933;-73
2023/07/28 13:15:13;;;;;;;;;;;;;;;33.38;25.65;96153.09;6172046;28;19933;-73
2023/07/28 13:18:21;;;;;;;;;;;;;;;33.24;25.92;96150.00;6154321;28;19937;-73
2023/07/28 13:21:31;;;;;;;;;;;;;;;32.79;26.16;96142.22;6155608;28;19932;-72
2023/07/28 13:24:35;;;;;;;;;;;;;;;32.74;26.13;96155.78;6171879;28;19930;-73
2023/07/28 13:27:36;;;;;;;;;;;;;;;32.46;26.50;96154.97;6171672;28;20316;-73
2023/07/28 13:30:40;;;;;;;;;;;;;;;32.43;26.76;96150.81;6171847;28;20002;-72
2023/07/28 13:33:44;;;;;;;;;;;;;;;32.36;26.37;96160.28;6171789;28;19933;-73
2023/07/28 13:36:48;;;;;;;;;;;;;;;32.23;26.74;96155.22;6171719;28;19925;-71
2023/07/28 13:39:51;;;;;;;;;;;;;;;32.03;26.29;96162.06;6171809;28;19925;-72
2023/07/28 13:42:55;;;;;;;;;;;;;;;31.93;26.20;96161.91;6171766;28;20522;-73
2023/07/28 13:45:57;;;;;;;;;;;;;;;31.68;26.89;96160.47;6171317;28;19996;-72
2023/07/28 13:49:01;;;;;;;;;;;;;;;31.69;27.11;96151.25;6170884;28;19926;-73
2023/07/28 13:52:04;;;;;;;;;;;;;;;31.59;27.41;96159.25;6176136;28;19926;-71
2023/07/28 13:55:05;;;;;;;;;;;;;;;31.57;27.13;96155.97;6175902;28;19926;-72
2023/07/28 13:58:14;;;;;;;;;;;;;;;31.47;27.39;96158.53;6176164;28;19926;-72
2023/07/28 14:01:20;;;;;;;;;;;;;;;31.50;27.09;96163.47;6175288;28;19926;-73
2023/07/28 14:04:21;;;;;;;;;;;;;;;31.59;26.90;96156.53;6174723;28;19933;-71
2023/07/28 14:07:27;;;;;;;;;;;;;;;31.41;27.60;96170.41;6175513;28;19926;-72
2023/07/28 14:10:32;;;;;;;;;;;;;;;31.25;27.78;96178.31;6175875;28;19930;-73
2023/07/28 14:13:33;;;;;;;;;;;;;;;31.09;27.48;96181.84;6174633;28;20415;-73
2023/07/28 14:16:36;;;;;;;;;;;;;;;31.08;27.66;96174.72;6175443;28;19934;-73
2023/07/28 14:19:38;;;;;;;;;;;;;;;31.02;28.09;96179.25;6175634;28;20061;-72
2023/07/28 14:22:42;;;;;;;;;;;;;;;30.97;27.70;96176.47;6175443;28;20387;-72
2023/07/28 14:25:46;;;;;;;;;;;;;;;30.87;28.16;96177.09;6175822;28;19926;-74
2023/07/28 14:28:47;;;;;;;;;;;;;;;30.75;28.10;96181.75;6174295;28;20403;-72
2023/07/28 14:31:48;;;;;;;;;;;;;;;30.73;28.22;96180.34;6174677;28;20451;-73
2023/07/28 14:34:53;;;;;;;;;;;;;;;30.60;28.44;96176.03;6158706;28;20347;-72
2023/07/28 14:37:54;;;;;;;;;;;;;;;30.49;28.97;96185.06;6175515;28;19926;-72
2023/07/28 14:40:57;;;;;;;;;;;;;;;30.38;29.25;96184.06;6158032;28;20061;-72
2023/07/28 14:43:58;;;;;;;;;;;;;;;30.30;29.54;96185.25;6174255;28;19956;-73
2023/07/28 14:46:59;;;;;;;;;;;;;;;30.18;29.46;96193.41;6174230;28;20311;-72
2023/07/28 14:50:03;;;;;;;;;;;;;;;30.02;29.63;96201.47;6174563;28;19926;-72
2023/07/28 14:53:24;;;;;;;;;;;;;;;29.95;29.70;96197.00;6174512;28;20412;-72
2023/07/28 14:56:27;;;;;;;;;;;;;;;29.90;30.25;96199.59;6174534;28;19937;-72
2023/07/28 14:59:28;;;;;;;;;;;;;;;29.61;30.40;96189.66;6173714;28;20020;-72
2023/07/28 15:02:35;;;;;;;;;;;;;;;29.43;30.72;96198.75;6156551;28;19930;-72
2023/07/28 15:05:39;;;;;;;;;;;;;;;29.34;31.11;96203.69;6175047;28;20395;-72
2023/07/28 15:08:44;;;;;;;;;;;;;;;29.22;31.28;96200.16;6174948;28;20316;-73
2023/07/28 15:11:47;;;;;;;;;;;;;;;29.15;31.67;96202.13;6173886;28;19933;-72
2023/07/28 15:14:48;;;;;;;;;;;;;;;28.94;32.51;96190.75;6174481;28;19926;-73
2023/07/28 15:17:52;;;;;;;;;;;;;;;28.72;32.48;96197.75;6173468;28;19930;-73
2023/07/28 15:20:59;;;;;;;;;;;;;;;28.53;32.58;96200.50;6174205;28;19930;-73
2023/07/28 15:24:03;;;;;;;;;;;;;;;28.34;32.90;96202.41;6174278;28;19926;-72
2023/07/28 15:27:04;;;;;;;;;;;;;;;28.19;33.08;96200.09;6173235;28;19973;-71
2023/07/28 15:30:08;;;;;;;;;;;;;;;28.01;33.49;96207.41;6174116;28;19926;-71
2023/07/28 15:33:11;;;;;;;;;;;;;;;28.00;33.34;96206.56;6173378;28;19926;-73
2023/07/28 15:36:12;;;;;;;;;;;;;;;27.89;33.49;96207.31;6172972;28;19981;-72
2023/07/28 15:39:16;;;;;;;;;;;;;;;27.71;33.62;96213.50;6174056;28;20018;-72
2023/07/28 15:42:20;;;;;;;;;;;;;;;27.47;33.64;96218.72;6156246;28;19926;-73
2023/07/28 15:45:21;;;;;;;;;;;;;;;27.46;33.92;96216.22;6173332;28;19941;-72
2023/07/28 15:48:25;;;;;;;;;;;;;;;27.23;34.20;96212.28;6173698;28;19930;-72
2023/07/28 15:51:28;;;;;;;;;;;;;;;27.01;34.17;96213.69;6173424;28;20028;-72
2023/07/28 15:54:29;;;;;;;;;;;;;;;26.92;34.45;96215.81;6172765;28;19988;-73
2023/07/28 15:57:31;;;;;;;;;;;;;;;26.71;34.50;96213.47;6155397;28;20312;-72
2023/07/28 16:00:32;;;;;;;;;;;;;;;26.75;34.84;96220.06;6172563;28;20419;-73